ワシントン/ダレス の空港の天気 - METARとTAF

ワシントン・ダレス国際空港 ( KIAD / IAD ) - アメリカ バージニア州ダレス
飛行場実況気象(Metar)
観測時間10/21 12:10 EDT (10/21 16:10 UTC)
風向・風速南南西 3m/s
視程10km以上
天気現象
全天を覆う雲 雲底高度 340m
気温21.1℃
湿度84%
気圧1025hPa
METARKIAD 211610Z 20006KT 7SM OVC011 21/18 A3027 RMK AO2 T02110183
過去の天気等 Google飛行場航空写真 Wunderground天気予報

過去48時間のMETAR

飛行場予報(TAF)
発表時間: 10/21 10:54 EDT (10/21 14:54 UTC)
予報対象時間: 21日11時 EDT ~ 22日14時 EDT
風向・風速南 4m/s
視程4830m
天気現象もや
全天を覆う雲 雲底高度 90m
21日12時 EDT から
風向・風速南 3m/s
視程10km以上
天気現象もや
全天の8割程度の雲 雲底高度 300m
21日13時 EDT から
風向・風速南 4m/s
視程10km以上
全天の4割程度の雲 雲底高度 3660m
22日5時 EDT から
風向・風速静穏
視程800m
天気現象
全天の8割程度の雲 雲底高度 30m
22日9時 EDT から
風向・風速静穏
視程1610m
天気現象もや
全天の8割程度の雲 雲底高度 90m
22日11時 EDT から
風向・風速静穏
視程10km以上
全天の4割程度の雲 雲底高度 760m
KIAD 211454Z 2115/2218 18007KT 3SM BR OVC003
FM211600 18006KT 6SM BR BKN010
FM211700 18008KT P6SM SCT120
FM220900 00000KT 1/2SM FG BKN001
FM221300 00000KT 1SM BR BKN003
FM221500 00000KT P6SM SCT025